createdAt,value
2022-08-04T00:01:51.812Z,62.62
2022-08-04T00:04:31.609Z,62.45
2022-08-04T00:07:14.051Z,61.82
2022-08-04T00:09:55.710Z,62.40
2022-08-04T00:12:31.756Z,62.30
2022-08-04T00:15:10.468Z,62.84
2022-08-04T00:17:54.717Z,62.27
2022-08-04T00:20:29.029Z,62.68
2022-08-04T00:22:57.741Z,62.00
2022-08-04T00:25:25.508Z,63.34
2022-08-04T00:27:54.461Z,62.64
2022-08-04T00:30:21.840Z,63.30
2022-08-04T00:33:02.269Z,63.12
2022-08-04T00:35:36.190Z,63.10
2022-08-04T00:38:06.130Z,62.61
2022-08-04T00:40:48.854Z,63.27
2022-08-04T00:43:34.265Z,63.32
2022-08-04T00:46:19.962Z,63.54
2022-08-04T00:49:08.829Z,63.40
2022-08-04T00:51:36.085Z,63.55
2022-08-04T00:54:44.935Z,63.91
2022-08-04T00:57:43.563Z,64.09
2022-08-04T01:00:14.230Z,64.03
2022-08-04T01:02:53.332Z,63.82
2022-08-04T01:05:50.597Z,64.51
2022-08-04T01:08:53.112Z,64.02
2022-08-04T01:11:31.623Z,64.25
2022-08-04T01:14:18.005Z,64.63
2022-08-04T01:16:51.743Z,64.85
2022-08-04T01:20:07.765Z,64.49
2022-08-04T01:23:25.190Z,65.44
2022-08-04T01:26:43.134Z,66.16
2022-08-04T01:29:23.902Z,66.56
2022-08-04T01:32:07.266Z,65.88
2022-08-04T01:34:40.751Z,66.53
2022-08-04T01:37:31.675Z,66.59
2022-08-04T01:40:17.669Z,67.70
2022-08-04T01:42:47.689Z,68.92
2022-08-04T01:45:36.776Z,69.41
2022-08-04T01:48:06.841Z,68.16
2022-08-04T01:50:43.278Z,68.93
2022-08-04T01:53:16.401Z,68.78
2022-08-04T01:55:54.795Z,69.12
2022-08-04T01:58:25.280Z,69.28
2022-08-04T02:01:05.125Z,68.76
2022-08-04T02:04:19.911Z,67.71
2022-08-04T02:07:10.150Z,67.18
2022-08-04T02:09:53.949Z,67.96
2022-08-04T02:12:49.661Z,68.58
2022-08-04T02:15:22.847Z,67.96
2022-08-04T02:18:24.876Z,68.14
2022-08-04T02:20:59.703Z,68.08
2022-08-04T02:23:39.175Z,67.65
2022-08-04T02:26:22.746Z,67.73
2022-08-04T02:29:08.759Z,68.11
2022-08-04T02:31:46.253Z,68.28
2022-08-04T02:34:47.670Z,68.03
2022-08-04T02:37:17.647Z,69.30
2022-08-04T02:39:48.922Z,69.57
2022-08-04T02:42:24.512Z,69.05
2022-08-04T02:44:52.220Z,69.73
2022-08-04T02:48:28.905Z,69.76
2022-08-04T02:50:37.584Z,69.20
2022-08-04T02:53:08.834Z,69.79
2022-08-04T02:55:41.628Z,70.91
2022-08-04T02:58:23.185Z,70.76
2022-08-04T03:00:51.999Z,70.01
2022-08-04T03:03:44.746Z,69.79
2022-08-04T03:06:11.972Z,70.79
2022-08-04T03:09:08.332Z,71.13
2022-08-04T03:11:44.609Z,71.10
2022-08-04T03:14:36.814Z,71.70
2022-08-04T03:17:58.979Z,72.70
2022-08-04T03:20:41.352Z,72.01
2022-08-04T03:23:48.758Z,72.04
2022-08-04T03:26:26.201Z,72.46
2022-08-04T03:29:43.577Z,71.91
2022-08-04T03:32:22.873Z,71.63
2022-08-04T03:35:27.757Z,71.66
2022-08-04T03:38:22.841Z,72.53
2022-08-04T03:41:11.862Z,72.47
2022-08-04T03:44:03.189Z,71.29
2022-08-04T03:46:42.027Z,71.45
2022-08-04T03:49:40.770Z,71.79
2022-08-04T03:52:53.803Z,72.16
2022-08-04T03:55:33.780Z,71.69
2022-08-04T03:58:33.948Z,71.71
2022-08-04T04:01:18.232Z,72.47
2022-08-04T04:04:18.710Z,72.76
2022-08-04T04:07:21.536Z,71.82
2022-08-04T04:10:19.191Z,71.62
2022-08-04T04:13:09.748Z,71.83
2022-08-04T04:16:28.959Z,71.15
2022-08-04T04:19:12.230Z,70.58
2022-08-04T04:22:22.302Z,70.80
2022-08-04T04:25:06.165Z,69.90
2022-08-04T04:27:48.097Z,70.36
2022-08-04T04:30:22.508Z,70.34
2022-08-04T04:33:01.891Z,70.57
2022-08-04T04:35:47.920Z,70.36
2022-08-04T04:38:34.425Z,70.38
2022-08-04T04:41:40.039Z,70.86
2022-08-04T04:44:53.780Z,70.86
2022-08-04T04:48:08.645Z,71.58
2022-08-04T04:51:11.994Z,71.35
2022-08-04T04:54:13.505Z,70.67
2022-08-04T04:57:09.762Z,70.53
2022-08-04T04:59:41.793Z,70.70
2022-08-04T05:02:08.944Z,70.43
2022-08-04T05:04:55.475Z,70.17
2022-08-04T05:08:43.492Z,69.98
2022-08-04T05:11:40.378Z,69.54
2022-08-04T05:14:37.122Z,69.81
2022-08-04T05:17:10.591Z,69.34
2022-08-04T05:20:01.404Z,67.71
2022-08-04T05:22:49.542Z,67.39
2022-08-04T05:25:23.620Z,67.36
2022-08-04T05:28:24.716Z,67.13
2022-08-04T05:30:59.117Z,66.64
2022-08-04T05:33:34.457Z,66.77
2022-08-04T05:36:21.057Z,66.21
2022-08-04T05:38:55.328Z,65.55
2022-08-04T05:41:22.805Z,65.41
2022-08-04T05:43:56.458Z,65.30
2022-08-04T05:46:25.847Z,64.80
2022-08-04T05:48:56.885Z,64.52
2022-08-04T05:51:29.413Z,64.57
2022-08-04T05:53:58.845Z,64.41
2022-08-04T05:56:26.589Z,64.33
2022-08-04T05:58:55.065Z,63.93
2022-08-04T06:01:55.353Z,64.42
2022-08-04T06:04:27.959Z,64.13
2022-08-04T06:06:55.793Z,64.21
2022-08-04T06:09:23.204Z,63.31
2022-08-04T06:12:00.988Z,62.35
2022-08-04T06:14:43.788Z,62.52
2022-08-04T06:19:57.589Z,62.53
2022-08-04T06:20:19.431Z,61.89
2022-08-04T06:23:03.869Z,61.90
2022-08-04T06:25:43.233Z,61.79
2022-08-04T06:28:11.714Z,62.13
2022-08-04T06:30:49.730Z,61.96
2022-08-04T06:33:54.301Z,61.99
2022-08-04T06:36:24.601Z,62.40
2022-08-04T06:38:58.415Z,62.67
2022-08-04T06:41:29.478Z,62.85
2022-08-04T06:44:03.309Z,62.54
2022-08-04T06:46:32.071Z,62.81
2022-08-04T06:48:59.414Z,62.45
2022-08-04T06:51:38.021Z,62.17
2022-08-04T06:54:12.492Z,61.83
2022-08-04T06:56:41.140Z,61.97
2022-08-04T06:59:11.025Z,62.10
2022-08-04T07:01:42.869Z,61.47
2022-08-04T07:04:10.390Z,60.79
2022-08-04T07:06:46.778Z,59.93
2022-08-04T07:09:18.413Z,60.20
2022-08-04T07:11:47.238Z,59.61
2022-08-04T07:14:36.020Z,59.91
2022-08-04T07:17:09.385Z,59.84
2022-08-04T07:19:37.180Z,60.11
2022-08-04T07:22:25.381Z,59.97
2022-08-04T07:24:57.821Z,58.71
2022-08-04T07:27:48.743Z,59.42
2022-08-04T07:30:15.394Z,59.31
2022-08-04T07:32:47.602Z,58.58
2022-08-04T07:36:10.152Z,59.40
2022-08-04T07:38:26.510Z,58.86
2022-08-04T07:40:56.137Z,59.10
2022-08-04T07:43:23.907Z,58.46
2022-08-04T07:46:10.324Z,58.95
2022-08-04T07:48:46.503Z,58.11
2022-08-04T07:51:15.553Z,57.98
2022-08-04T07:53:54.065Z,57.05
2022-08-04T07:56:28.351Z,57.38
2022-08-04T07:58:56.214Z,57.93
2022-08-04T08:01:24.759Z,56.59
2022-08-04T08:03:55.029Z,55.50
2022-08-04T08:06:43.423Z,55.74
2022-08-04T08:09:15.164Z,56.65
2022-08-04T08:12:36.051Z,56.50
2022-08-04T08:14:38.460Z,55.47
2022-08-04T08:17:07.085Z,55.81
2022-08-04T08:19:35.472Z,54.75
2022-08-04T08:22:20.910Z,54.94
2022-08-04T08:24:48.256Z,55.17
2022-08-04T08:27:36.812Z,55.07
2022-08-04T08:30:06.713Z,54.17
2022-08-04T08:32:33.890Z,53.45
2022-08-04T08:35:04.053Z,54.55
2022-08-04T08:37:41.823Z,53.44
2022-08-04T08:40:15.774Z,53.19
2022-08-04T08:42:53.329Z,53.35
2022-08-04T08:45:43.421Z,52.54
2022-08-04T08:48:58.717Z,52.98
2022-08-04T08:51:56.137Z,51.32
2022-08-04T08:55:12.413Z,50.81
2022-08-04T08:58:00.928Z,52.27
2022-08-04T09:00:47.956Z,51.35
2022-08-04T09:03:24.988Z,50.62
2022-08-04T09:06:13.008Z,50.54
2022-08-04T09:08:53.990Z,49.86
2022-08-04T09:11:50.123Z,50.36
2022-08-04T09:14:39.833Z,48.60
2022-08-04T09:17:27.221Z,48.22
2022-08-04T09:20:04.014Z,48.45
2022-08-04T09:22:49.941Z,47.37
2022-08-04T09:25:34.529Z,48.30
2022-08-04T09:28:50.917Z,47.62
2022-08-04T09:31:19.966Z,46.74
2022-08-04T09:33:58.936Z,46.38
2022-08-04T09:36:46.650Z,46.45
2022-08-04T09:39:37.207Z,46.53
2022-08-04T09:42:34.675Z,46.30
2022-08-04T09:45:26.183Z,45.98
2022-08-04T09:48:08.061Z,45.67
2022-08-04T09:50:50.010Z,45.65
2022-08-04T09:53:42.008Z,45.10
2022-08-04T09:56:28.137Z,46.07
2022-08-04T09:59:49.848Z,43.94
2022-08-04T10:02:26.677Z,42.51
2022-08-04T10:05:03.628Z,39.83
2022-08-04T10:08:16.636Z,40.53
2022-08-04T10:11:12.263Z,41.42
2022-08-04T10:13:51.852Z,42.39
2022-08-04T10:16:44.045Z,39.30
2022-08-04T10:19:35.217Z,37.41
2022-08-04T10:22:28.849Z,36.79
2022-08-04T10:26:03.101Z,36.37
2022-08-04T10:28:14.185Z,35.30
2022-08-04T10:31:00.809Z,37.59
2022-08-04T10:33:32.941Z,36.64
2022-08-04T10:36:04.603Z,34.01
2022-08-04T10:38:40.474Z,33.38
2022-08-04T10:41:39.882Z,34.37
2022-08-04T10:44:48.329Z,35.65
2022-08-04T10:47:43.872Z,35.66
2022-08-04T10:50:23.473Z,35.91
2022-08-04T10:53:05.784Z,36.42
2022-08-04T10:56:06.450Z,37.15
2022-08-04T10:58:48.714Z,37.63
2022-08-04T11:02:01.519Z,37.71
2022-08-04T11:04:49.832Z,36.82
2022-08-04T11:07:18.169Z,33.98
2022-08-04T11:09:46.538Z,32.93
2022-08-04T11:12:26.303Z,32.40
2022-08-04T11:15:01.271Z,32.24
2022-08-04T11:17:36.021Z,32.29
2022-08-04T11:20:33.999Z,31.86
2022-08-04T11:23:02.331Z,33.32
2022-08-04T11:25:48.482Z,33.71
2022-08-04T11:29:12.705Z,33.82
2022-08-04T11:31:48.449Z,34.88
2022-08-04T11:34:23.508Z,35.09
2022-08-04T11:37:28.707Z,36.44
2022-08-04T11:40:33.050Z,36.30
2022-08-04T11:43:09.852Z,36.68
2022-08-04T11:45:50.831Z,36.14
2022-08-04T11:48:25.757Z,36.31
2022-08-04T11:50:55.149Z,35.78
2022-08-04T11:53:26.214Z,36.32
2022-08-04T11:56:11.275Z,37.07
2022-08-04T11:58:39.856Z,37.34
2022-08-04T12:01:27.997Z,37.76
2022-08-04T12:04:23.731Z,37.35
2022-08-04T12:07:29.586Z,37.85
2022-08-04T12:10:41.823Z,37.72
2022-08-04T12:13:31.583Z,37.07
2022-08-04T12:16:13.955Z,37.47
2022-08-04T12:18:58.469Z,37.63
2022-08-04T12:21:39.189Z,37.21
2022-08-04T12:24:20.024Z,37.37
2022-08-04T12:27:16.850Z,37.76
2022-08-04T12:30:57.502Z,37.86
2022-08-04T12:33:12.814Z,37.22
2022-08-04T12:36:10.375Z,37.85
2022-08-04T12:39:06.548Z,37.85
2022-08-04T12:42:01.378Z,37.96
2022-08-04T12:44:53.945Z,39.00
2022-08-04T12:47:29.726Z,39.11
2022-08-04T12:50:03.956Z,38.74
2022-08-04T12:55:29.988Z,39.11
2022-08-04T12:57:58.488Z,39.14
2022-08-04T13:00:43.746Z,38.72
2022-08-04T13:03:14.724Z,38.90
2022-08-04T13:06:00.642Z,38.95
2022-08-04T13:08:28.385Z,38.74
2022-08-04T13:11:20.418Z,38.91
2022-08-04T13:14:10.944Z,38.49
2022-08-04T13:17:02.284Z,38.85
2022-08-04T13:19:31.376Z,37.92
2022-08-04T13:22:29.045Z,37.51
2022-08-04T13:26:40.624Z,36.57
2022-08-04T13:27:48.724Z,37.01
2022-08-04T13:30:25.809Z,36.09
2022-08-04T13:32:58.761Z,37.39
2022-08-04T13:35:56.018Z,37.49
2022-08-04T13:38:31.926Z,37.09
2022-08-04T13:41:04.720Z,37.46
2022-08-04T13:44:19.628Z,36.21
2022-08-04T13:46:53.204Z,36.84
2022-08-04T13:50:00.880Z,36.53
2022-08-04T13:52:29.646Z,36.30
2022-08-04T13:55:36.299Z,35.94
2022-08-04T13:58:14.293Z,35.65
2022-08-04T14:01:09.754Z,36.25
2022-08-04T14:03:54.481Z,36.34
2022-08-04T14:06:49.381Z,37.58
2022-08-04T14:09:22.465Z,36.84
2022-08-04T14:12:46.490Z,37.02
2022-08-04T14:14:59.942Z,37.54
2022-08-04T14:17:30.529Z,36.18
2022-08-04T14:20:00.879Z,35.82
2022-08-04T14:22:28.212Z,35.73
2022-08-04T14:24:59.225Z,35.27
2022-08-04T14:27:47.992Z,35.39
2022-08-04T14:30:28.909Z,35.53
2022-08-04T14:34:01.090Z,35.24
2022-08-04T14:36:04.664Z,35.56
2022-08-04T14:39:00.441Z,35.12
2022-08-04T14:41:32.418Z,35.41
2022-08-04T14:44:02.952Z,35.96
2022-08-04T14:46:36.496Z,36.28
2022-08-04T14:49:10.478Z,35.63
2022-08-04T14:51:46.397Z,35.25
2022-08-04T14:54:34.557Z,35.50
2022-08-04T14:57:05.626Z,36.24
2022-08-04T15:00:01.635Z,36.62
2022-08-04T15:02:38.559Z,36.67
2022-08-04T15:06:02.507Z,37.66
2022-08-04T15:08:18.310Z,37.23
2022-08-04T15:11:03.872Z,38.05
2022-08-04T15:13:38.737Z,38.31
2022-08-04T15:16:08.359Z,38.29
2022-08-04T15:18:37.487Z,38.32
2022-08-04T15:21:05.588Z,38.23
2022-08-04T15:23:39.819Z,38.04
2022-08-04T15:26:15.426Z,37.98
2022-08-04T15:29:10.984Z,38.45
2022-08-04T15:32:05.739Z,38.44
2022-08-04T15:34:50.443Z,39.11
2022-08-04T15:37:31.108Z,38.48
2022-08-04T15:40:33.005Z,39.45
2022-08-04T15:43:27.529Z,39.54
2022-08-04T15:46:43.903Z,39.83
2022-08-04T15:49:18.017Z,40.37
2022-08-04T15:52:12.173Z,40.27
2022-08-04T15:54:52.617Z,40.65
2022-08-04T15:58:01.987Z,40.86
2022-08-04T16:00:49.592Z,41.41
2022-08-04T16:03:55.330Z,41.68
2022-08-04T16:06:27.477Z,42.03
2022-08-04T16:09:03.366Z,42.72
2022-08-04T16:11:40.524Z,44.23
2022-08-04T16:14:12.075Z,45.04
2022-08-04T16:16:42.213Z,45.09
2022-08-04T16:20:02.642Z,45.50
2022-08-04T16:22:39.439Z,46.05
2022-08-04T16:25:48.124Z,46.46
2022-08-04T16:28:34.378Z,46.68
2022-08-04T16:31:16.494Z,46.79
2022-08-04T16:33:46.910Z,47.56
2022-08-04T16:37:01.567Z,47.49
2022-08-04T16:39:31.667Z,47.84
2022-08-04T16:42:36.396Z,48.33
2022-08-04T16:45:09.061Z,48.07
2022-08-04T16:47:48.456Z,47.88
2022-08-04T16:50:20.718Z,48.29
2022-08-04T16:52:55.598Z,48.33
2022-08-04T16:55:27.820Z,48.45
2022-08-04T16:57:58.769Z,48.08
2022-08-04T17:00:35.796Z,48.12
2022-08-04T17:03:21.357Z,48.60
2022-08-04T17:05:48.988Z,48.89
2022-08-04T17:08:35.495Z,49.31
2022-08-04T17:11:02.790Z,49.48
2022-08-04T17:14:01.769Z,49.45
2022-08-04T17:16:40.267Z,49.86
2022-08-04T17:19:25.283Z,49.23
2022-08-04T17:22:02.636Z,49.65
2022-08-04T17:24:33.550Z,48.91
2022-08-04T17:27:00.952Z,49.11
2022-08-04T17:29:46.560Z,49.02
2022-08-04T17:32:21.160Z,48.90
2022-08-04T17:35:07.685Z,48.94
2022-08-04T17:37:52.058Z,49.16
2022-08-04T17:44:05.241Z,49.81
2022-08-04T17:46:52.437Z,49.90
2022-08-04T17:49:24.816Z,49.28
2022-08-04T17:52:41.470Z,49.13
2022-08-04T17:55:16.304Z,49.40
2022-08-04T17:58:21.046Z,48.82
2022-08-04T18:01:16.388Z,48.48
2022-08-04T18:05:05.694Z,48.61
2022-08-04T18:08:39.364Z,48.77
2022-08-04T18:10:56.071Z,48.40
2022-08-04T18:13:26.011Z,48.44
2022-08-04T18:16:21.864Z,48.99
2022-08-04T18:19:10.174Z,49.09
2022-08-04T18:21:59.343Z,48.90
2022-08-04T18:24:34.536Z,49.50
2022-08-04T18:27:45.694Z,49.25
2022-08-04T18:30:38.222Z,49.21
2022-08-04T18:33:40.148Z,49.46
2022-08-04T18:36:33.182Z,49.46
2022-08-04T18:42:05.366Z,49.92
2022-08-04T18:44:52.144Z,49.68
2022-08-04T18:47:29.549Z,50.23
2022-08-04T18:51:00.985Z,50.92
2022-08-04T18:53:08.239Z,52.17
2022-08-04T18:55:56.519Z,52.88
2022-08-04T18:58:27.363Z,53.30
2022-08-04T19:01:04.161Z,54.25
2022-08-04T19:03:45.596Z,54.54
2022-08-04T19:06:33.277Z,55.52
2022-08-04T19:09:00.928Z,55.73
2022-08-04T19:11:54.592Z,56.80
2022-08-04T19:14:22.679Z,57.14
2022-08-04T19:16:49.983Z,57.92
2022-08-04T19:19:18.213Z,58.17
2022-08-04T19:22:00.575Z,58.18
2022-08-04T19:24:34.451Z,58.81
2022-08-04T19:27:08.355Z,58.88
2022-08-04T19:29:45.166Z,58.91
2022-08-04T19:32:31.908Z,58.84
2022-08-04T19:34:59.061Z,58.92
2022-08-04T19:38:01.211Z,59.19
2022-08-04T19:43:36.406Z,58.69
2022-08-04T19:46:17.705Z,58.90
2022-08-04T19:49:03.576Z,59.15
2022-08-04T19:51:38.922Z,58.88
2022-08-04T19:54:16.693Z,58.57
2022-08-04T19:56:51.282Z,59.57
2022-08-04T19:59:21.826Z,59.02
2022-08-04T20:01:56.317Z,58.82
2022-08-04T20:04:41.983Z,100.00
2022-08-04T20:07:14.295Z,100.00
2022-08-04T20:10:00.145Z,100.00
2022-08-04T20:12:33.016Z,100.00
2022-08-04T20:15:00.594Z,58.40
2022-08-04T20:18:08.210Z,59.19
2022-08-04T20:20:15.063Z,59.04
2022-08-04T20:22:52.553Z,59.28
2022-08-04T20:25:36.436Z,59.09
2022-08-04T20:28:10.461Z,59.39
2022-08-04T20:31:11.214Z,59.93
2022-08-04T20:33:49.205Z,60.22
2022-08-04T20:36:41.280Z,59.93
2022-08-04T20:39:18.544Z,60.58
2022-08-04T20:42:07.260Z,60.62
2022-08-04T20:44:46.206Z,60.58
2022-08-04T20:47:21.225Z,61.18
2022-08-04T20:49:49.685Z,60.98
2022-08-04T20:52:20.720Z,61.78
2022-08-04T20:54:56.180Z,61.86
2022-08-04T20:57:48.393Z,61.64
2022-08-04T21:00:26.385Z,61.80
2022-08-04T21:03:15.510Z,62.06
2022-08-04T21:05:44.315Z,62.14
2022-08-04T21:08:30.233Z,62.88
2022-08-04T21:11:00.782Z,62.55
2022-08-04T21:13:51.964Z,62.50
2022-08-04T21:16:53.821Z,62.65
2022-08-04T21:19:15.221Z,62.71
2022-08-04T21:21:50.093Z,62.65
2022-08-04T21:24:26.313Z,63.30
2022-08-04T21:26:56.853Z,63.46
2022-08-04T21:29:42.412Z,63.16
2022-08-04T21:32:13.385Z,63.34
2022-08-04T21:35:00.390Z,63.65
2022-08-04T21:37:56.655Z,63.54
2022-08-04T21:40:38.791Z,63.77
2022-08-04T21:43:08.257Z,63.96
2022-08-04T21:45:36.237Z,64.31
2022-08-04T21:48:05.036Z,63.80
2022-08-04T21:50:32.178Z,64.18
2022-08-04T21:53:03.064Z,64.43
2022-08-04T21:56:04.976Z,64.53
2022-08-04T21:58:38.476Z,64.66
2022-08-04T22:01:51.571Z,64.44
2022-08-04T22:04:25.781Z,64.44
2022-08-04T22:07:11.286Z,64.78
2022-08-04T22:09:41.618Z,64.20
2022-08-04T22:12:23.321Z,63.93
2022-08-04T22:14:57.596Z,64.67
2022-08-04T22:17:29.447Z,64.47
2022-08-04T22:20:04.330Z,64.04
2022-08-04T22:22:43.205Z,64.20
2022-08-04T22:25:18.512Z,63.85
2022-08-04T22:28:04.442Z,64.12
2022-08-04T22:30:37.556Z,63.17
2022-08-04T22:33:23.597Z,62.47
2022-08-04T22:36:13.061Z,62.31
2022-08-04T22:39:06.565Z,62.05
2022-08-04T22:41:48.300Z,61.92
2022-08-04T22:44:16.412Z,61.38
2022-08-04T22:46:43.713Z,61.46
2022-08-04T22:49:12.968Z,63.97
2022-08-04T22:51:50.624Z,63.46
2022-08-04T22:54:36.638Z,66.08
2022-08-04T22:57:03.834Z,65.78
2022-08-04T22:59:42.620Z,65.62
2022-08-04T23:02:10.396Z,67.83
2022-08-04T23:04:38.025Z,70.02
2022-08-04T23:07:09.489Z,71.46
2022-08-04T23:09:50.777Z,75.32
2022-08-04T23:12:27.280Z,77.90
2022-08-04T23:15:13.418Z,73.05
2022-08-04T23:17:43.816Z,72.98
2022-08-04T23:20:39.723Z,72.91
2022-08-04T23:23:12.296Z,73.13
2022-08-04T23:26:08.700Z,72.30
2022-08-04T23:28:38.457Z,72.94
2022-08-04T23:31:05.693Z,71.70
2022-08-04T23:33:50.460Z,72.34
2022-08-04T23:36:29.361Z,74.27
2022-08-04T23:39:03.897Z,71.71
2022-08-04T23:41:57.707Z,73.07
2022-08-04T23:44:26.629Z,71.68
2022-08-04T23:48:15.079Z,72.57
2022-08-04T23:50:05.629Z,73.38
2022-08-04T23:52:52.780Z,74.89
2022-08-04T23:55:21.300Z,73.68
2022-08-04T23:58:18.874Z,73.60
